createdAt,value
2022-12-03T00:02:56.211Z,37.87
2022-12-03T00:07:58.041Z,38.90
2022-12-03T00:12:59.633Z,37.80
2022-12-03T00:18:01.219Z,35.00
2022-12-03T00:23:02.801Z,37.27
2022-12-03T00:28:04.637Z,38.77
2022-12-03T00:33:06.467Z,36.83
2022-12-03T00:38:08.048Z,35.50
2022-12-03T00:43:09.663Z,37.03
2022-12-03T00:48:11.338Z,35.60
2022-12-03T00:53:13.028Z,37.10
2022-12-03T00:58:14.608Z,32.20
2022-12-03T01:03:16.292Z,35.30
2022-12-03T01:08:18.017Z,36.33
2022-12-03T01:13:19.569Z,32.80
2022-12-03T01:18:21.154Z,33.10
2022-12-03T01:23:22.731Z,32.97
2022-12-03T01:28:24.296Z,32.30
2022-12-03T01:33:25.867Z,32.57
2022-12-03T01:38:27.421Z,32.30
2022-12-03T01:43:29.139Z,32.67
2022-12-03T01:48:35.630Z,32.20
2022-12-03T01:53:37.197Z,32.30
2022-12-03T01:58:40.547Z,31.80
2022-12-03T02:03:43.337Z,32.57
2022-12-03T02:08:45.406Z,33.30
2022-12-03T02:13:51.125Z,31.87
2022-12-03T02:18:52.880Z,33.80
2022-12-03T02:24:32.022Z,31.77
2022-12-03T02:29:33.657Z,32.43
2022-12-03T02:34:45.988Z,31.03
2022-12-03T02:39:53.798Z,29.70
2022-12-03T02:45:02.041Z,29.30
2022-12-03T02:50:07.929Z,28.70
2022-12-03T02:55:10.037Z,29.20
2022-12-03T03:00:12.703Z,30.23
2022-12-03T03:05:15.854Z,29.23
2022-12-03T03:10:21.862Z,29.73
2022-12-03T03:15:25.185Z,28.87
2022-12-03T03:20:26.800Z,28.03
2022-12-03T03:25:28.442Z,27.73
2022-12-03T03:30:30.383Z,27.50
2022-12-03T03:35:32.216Z,26.73
2022-12-03T03:40:34.052Z,26.80
2022-12-03T03:45:35.735Z,28.70
2022-12-03T03:50:37.470Z,26.00
2022-12-03T03:55:39.978Z,26.97
2022-12-03T04:00:44.931Z,27.63
2022-12-03T04:05:47.078Z,29.03
2022-12-03T04:11:07.139Z,28.60
2022-12-03T04:16:08.807Z,27.07
2022-12-03T04:21:41.047Z,27.13
2022-12-03T04:27:01.146Z,29.87
2022-12-03T04:32:21.518Z,29.73
2022-12-03T04:37:23.094Z,28.60
2022-12-03T04:42:24.657Z,27.73
2022-12-03T04:47:26.253Z,27.07
2022-12-03T04:52:27.819Z,29.50
2022-12-03T04:57:29.366Z,26.47
2022-12-03T05:02:31.007Z,28.53
2022-12-03T05:07:32.729Z,29.33
2022-12-03T05:12:34.478Z,27.57
2022-12-03T05:17:36.068Z,29.93
2022-12-03T05:22:37.642Z,30.97
2022-12-03T05:27:39.269Z,29.80
2022-12-03T05:32:40.818Z,31.13
2022-12-03T05:37:42.756Z,29.67
2022-12-03T05:43:01.228Z,29.57
2022-12-03T05:48:04.955Z,30.47
2022-12-03T05:53:06.622Z,28.47
2022-12-03T05:58:08.274Z,30.27
2022-12-03T06:03:10.543Z,28.63
2022-12-03T06:08:12.433Z,30.17
2022-12-03T06:13:14.142Z,30.40
2022-12-03T06:18:15.730Z,29.60
2022-12-03T06:23:17.392Z,26.27
2022-12-03T06:28:18.990Z,30.27
2022-12-03T06:33:20.566Z,28.00
2022-12-03T06:38:22.406Z,27.30
2022-12-03T06:43:24.005Z,28.10
2022-12-03T06:48:25.578Z,27.50
2022-12-03T06:53:27.189Z,27.87
2022-12-03T06:58:28.814Z,28.37
2022-12-03T07:03:30.448Z,26.87
2022-12-03T07:08:32.033Z,29.63
2022-12-03T07:13:33.627Z,30.23
2022-12-03T07:18:35.195Z,28.87
2022-12-03T07:23:36.818Z,40.90
2022-12-03T07:28:38.521Z,29.37
2022-12-03T07:33:40.134Z,29.20
2022-12-03T07:38:41.782Z,40.65
2022-12-03T07:43:45.211Z,41.50
2022-12-03T07:48:46.819Z,44.57
2022-12-03T07:53:48.446Z,34.53
2022-12-03T07:58:50.055Z,28.67
2022-12-03T08:03:51.728Z,30.07
2022-12-03T08:08:53.348Z,37.13
2022-12-03T08:13:57.330Z,30.73
2022-12-03T08:18:58.980Z,31.97
2022-12-03T08:24:12.722Z,29.77
2022-12-03T08:29:16.887Z,29.37
2022-12-03T08:34:21.164Z,29.20
2022-12-03T08:39:34.716Z,28.77
2022-12-03T08:44:40.901Z,32.57
2022-12-03T08:49:47.309Z,28.70
2022-12-03T08:54:53.788Z,27.65
2022-12-03T09:00:20.801Z,41.67
2022-12-03T09:05:27.235Z,28.50
2022-12-03T09:10:29.021Z,27.10
2022-12-03T09:15:30.581Z,27.88
2022-12-03T09:20:32.274Z,27.88
2022-12-03T09:25:34.013Z,26.83
2022-12-03T09:30:35.744Z,27.83
2022-12-03T09:35:37.356Z,26.83
2022-12-03T09:40:39.358Z,35.00
2022-12-03T09:45:41.096Z,29.67
2022-12-03T09:50:43.508Z,27.57
2022-12-03T09:55:47.074Z,28.92
2022-12-03T10:00:51.421Z,26.98
2022-12-03T10:05:53.885Z,28.80
2022-12-03T10:10:56.697Z,30.48
2022-12-03T10:16:00.884Z,29.20
2022-12-03T10:21:02.657Z,27.83
2022-12-03T10:26:04.367Z,29.23
2022-12-03T10:31:12.244Z,28.00
2022-12-03T10:36:23.397Z,29.73
2022-12-03T10:41:28.835Z,31.95
2022-12-03T10:46:30.485Z,28.17
2022-12-03T10:51:32.216Z,27.63
2022-12-03T10:56:34.043Z,27.05
2022-12-03T11:01:35.687Z,29.38
2022-12-03T11:06:37.385Z,27.60
2022-12-03T11:11:39.105Z,28.45
2022-12-03T11:16:40.649Z,27.58
2022-12-03T11:22:06.839Z,30.02
2022-12-03T11:27:16.348Z,30.52
2022-12-03T11:32:42.947Z,29.20
2022-12-03T11:37:44.567Z,29.10
2022-12-03T11:42:47.892Z,27.27
2022-12-03T11:47:58.536Z,26.90
2022-12-03T11:53:24.857Z,28.33
2022-12-03T11:58:29.368Z,27.05
2022-12-03T12:03:52.627Z,28.70
2022-12-03T12:08:59.738Z,28.75
2022-12-03T12:14:05.639Z,25.98
2022-12-03T12:19:32.471Z,28.70
2022-12-03T12:24:40.724Z,27.20
2022-12-03T12:29:45.894Z,27.67
2022-12-03T12:34:50.416Z,26.05
2022-12-03T12:39:54.539Z,30.25
2022-12-03T12:45:18.333Z,28.38
2022-12-03T12:50:20.237Z,28.70
2022-12-03T12:55:23.279Z,29.95
2022-12-03T13:00:25.169Z,29.83
2022-12-03T13:05:38.104Z,29.83
2022-12-03T13:10:41.990Z,28.00
2022-12-03T13:16:00.922Z,27.63
2022-12-03T13:21:25.603Z,28.67
2022-12-03T13:26:39.269Z,28.67
2022-12-03T13:31:46.748Z,30.55
2022-12-03T13:36:55.278Z,31.30
2022-12-03T13:42:31.289Z,29.93
2022-12-03T13:47:33.147Z,30.05
2022-12-03T13:52:34.973Z,31.60
2022-12-03T13:57:36.795Z,31.08
2022-12-03T14:02:39.023Z,31.17
2022-12-03T14:07:41.464Z,31.55
2022-12-03T14:12:43.375Z,31.45
2022-12-03T14:17:45.159Z,32.13
2022-12-03T14:22:46.932Z,33.47
2022-12-03T14:27:50.043Z,31.25
2022-12-03T14:32:51.855Z,31.95
2022-12-03T14:37:53.740Z,28.60
2022-12-03T14:42:55.531Z,27.60
2022-12-03T14:47:57.310Z,28.23
2022-12-03T14:53:00.682Z,27.98
2022-12-03T14:58:02.438Z,23.50
2022-12-03T15:03:04.459Z,17.42
2022-12-03T15:08:06.736Z,13.18
2022-12-03T15:13:08.671Z,14.55
2022-12-03T15:18:10.444Z,14.82
2022-12-03T15:23:14.492Z,13.50
2022-12-03T15:28:16.551Z,13.48
2022-12-03T15:33:18.358Z,13.65
2022-12-03T15:38:20.153Z,13.50
2022-12-03T15:43:22.031Z,15.50
2022-12-03T15:48:23.845Z,14.82
2022-12-03T15:53:25.636Z,14.50
2022-12-03T15:58:27.406Z,16.00
2022-12-03T16:03:29.355Z,16.23
2022-12-03T16:08:31.337Z,15.63
2022-12-03T16:13:33.364Z,16.25
2022-12-03T16:18:35.156Z,16.00
2022-12-03T16:23:36.928Z,16.50
2022-12-03T16:28:38.719Z,15.88
2022-12-03T16:33:40.497Z,15.05
2022-12-03T16:38:42.437Z,17.33
2022-12-03T16:43:47.283Z,16.55
2022-12-03T16:48:49.219Z,16.80
2022-12-03T16:53:51.180Z,19.13
2022-12-03T16:58:52.954Z,17.45
2022-12-03T17:03:55.939Z,17.63
2022-12-03T17:08:57.785Z,16.13
2022-12-03T17:13:59.713Z,16.00
2022-12-03T17:19:01.525Z,15.35
2022-12-03T17:24:03.396Z,15.95
2022-12-03T17:29:05.174Z,15.90
2022-12-03T17:34:07.950Z,15.55
2022-12-03T17:39:09.713Z,15.77
2022-12-03T17:44:16.348Z,15.73
2022-12-03T17:49:21.110Z,16.00
2022-12-03T17:54:23.027Z,14.98
2022-12-03T17:59:24.811Z,15.13
2022-12-03T18:04:27.200Z,15.57
2022-12-03T18:09:29.090Z,15.18
2022-12-03T18:14:30.975Z,15.38
2022-12-03T18:19:32.736Z,14.65
2022-12-03T18:24:35.087Z,14.68
2022-12-03T18:29:36.936Z,14.98
2022-12-03T18:34:38.708Z,15.13
2022-12-03T18:39:43.005Z,13.45
2022-12-03T18:44:49.638Z,13.52
2022-12-03T18:49:52.320Z,13.38
2022-12-03T18:54:55.435Z,14.48
2022-12-03T18:59:57.545Z,14.60
2022-12-03T19:04:59.540Z,15.55
2022-12-03T19:10:01.342Z,14.02
2022-12-03T19:15:04.954Z,13.70
2022-12-03T19:20:09.225Z,13.65
2022-12-03T19:25:11.029Z,13.40
2022-12-03T19:30:13.150Z,13.93
2022-12-03T19:35:14.993Z,14.85
2022-12-03T19:40:16.964Z,15.02
2022-12-03T19:45:18.783Z,15.63
2022-12-03T19:50:23.173Z,15.38
2022-12-03T19:55:25.431Z,17.17
2022-12-03T20:00:27.251Z,14.05
2022-12-03T20:05:33.145Z,18.07
2022-12-03T20:10:35.606Z,16.42
2022-12-03T20:15:37.622Z,15.68
2022-12-03T20:20:39.420Z,16.13
2022-12-03T20:25:41.245Z,15.02
2022-12-03T20:30:44.647Z,15.73
2022-12-03T20:35:51.812Z,14.10
2022-12-03T20:40:54.029Z,14.15
2022-12-03T20:46:01.083Z,13.68
2022-12-03T20:51:06.650Z,11.90
2022-12-03T20:56:09.427Z,13.98
2022-12-03T21:01:23.320Z,15.27
2022-12-03T21:06:28.015Z,15.88
2022-12-03T21:11:32.116Z,20.87
2022-12-03T21:21:57.865Z,14.25
2022-12-03T21:26:59.647Z,14.07
2022-12-03T21:32:01.913Z,14.73
2022-12-03T21:37:03.852Z,12.75
2022-12-03T21:42:33.402Z,13.73
2022-12-03T21:47:32.135Z,14.65
2022-12-03T21:52:38.330Z,15.82
2022-12-03T21:57:40.146Z,14.50
2022-12-03T22:02:42.097Z,15.32
2022-12-03T22:07:44.057Z,15.85
2022-12-03T22:12:45.868Z,15.18
2022-12-03T22:17:48.056Z,15.15
2022-12-03T22:22:49.862Z,14.10
2022-12-03T22:27:52.862Z,14.32
2022-12-03T22:32:54.640Z,13.57
2022-12-03T22:37:56.409Z,15.40
2022-12-03T22:42:58.222Z,13.52
2022-12-03T22:47:59.998Z,14.48
2022-12-03T22:53:01.771Z,15.48
2022-12-03T22:58:04.426Z,14.15
2022-12-03T23:03:06.967Z,14.13
2022-12-03T23:08:15.336Z,12.95
2022-12-03T23:13:18.977Z,14.27
2022-12-03T23:18:21.158Z,14.40
2022-12-03T23:23:25.503Z,13.82
2022-12-03T23:28:28.633Z,14.30
2022-12-03T23:33:35.271Z,14.02
2022-12-03T23:38:40.643Z,13.65
2022-12-03T23:43:43.023Z,13.70
2022-12-03T23:48:45.597Z,13.95
2022-12-03T23:53:47.739Z,14.38
2022-12-03T23:58:49.909Z,14.13
